Walcott, North Dakota
Current Conditions -  °F | °C
As of 5:54 PM on Saturday 25 Oct 2014 (Local Time) from KJKJ Reporting Station
Clear Clear  
Wind Chill: 14°   Ceiling: Unl
Heat Index: 14°   Visibility: 10mi
Dew Point: -11°   Wind: 5mph
Humidity: 17%   Direction: 300°WNW
Pressure: 30.07"   Gusts: NA
Location:  46.55°N, 96.94°W
Report Text: KJKJ 252254Z AUTO 30004KT 10SM CLR 14/M11 A3007 RMK AO2
Loading
Personal Weather Stations






























Interactive Weather Map
Tropical Storm Tracking
New forecast layout! Learn more

10-Day Weather Forecast

Advertisements
Track Severe Weather on mobile